sensor_id;sensor_type;location;lat;lon;timestamp;P1;durP1;ratioP1;P2;durP2;ratioP2
55172;SDS011;41061;52.822;6.860;2023-04-12T00:01:15;8.80;;;2.28;;
55172;SDS011;41061;52.822;6.860;2023-04-12T00:03:41;11.65;;;2.65;;
55172;SDS011;41061;52.822;6.860;2023-04-12T00:06:07;5.68;;;1.85;;
55172;SDS011;41061;52.822;6.860;2023-04-12T00:08:34;10.23;;;2.67;;
55172;SDS011;41061;52.822;6.860;2023-04-12T00:11:00;10.70;;;2.58;;
55172;SDS011;41061;52.822;6.860;2023-04-12T00:13:27;11.25;;;2.55;;
55172;SDS011;41061;52.822;6.860;2023-04-12T00:15:53;9.25;;;2.17;;
55172;SDS011;41061;52.822;6.860;2023-04-12T00:18:19;13.27;;;2.88;;
55172;SDS011;41061;52.822;6.860;2023-04-12T00:20:49;8.13;;;2.50;;
55172;SDS011;41061;52.822;6.860;2023-04-12T00:23:16;10.95;;;2.50;;
55172;SDS011;41061;52.822;6.860;2023-04-12T00:25:43;13.13;;;2.30;;
55172;SDS011;41061;52.822;6.860;2023-04-12T00:28:09;6.97;;;2.65;;
55172;SDS011;41061;52.822;6.860;2023-04-12T00:30:35;8.88;;;2.20;;
55172;SDS011;41061;52.822;6.860;2023-04-12T00:33:01;13.02;;;2.90;;
55172;SDS011;41061;52.822;6.860;2023-04-12T00:35:26;9.05;;;2.35;;
55172;SDS011;41061;52.822;6.860;2023-04-12T00:37:52;12.45;;;2.72;;
55172;SDS011;41061;52.822;6.860;2023-04-12T00:40:19;11.48;;;2.67;;
55172;SDS011;41061;52.822;6.860;2023-04-12T00:42:45;10.82;;;2.30;;
55172;SDS011;41061;52.822;6.860;2023-04-12T00:45:11;9.75;;;2.65;;
55172;SDS011;41061;52.822;6.860;2023-04-12T00:47:37;11.25;;;2.85;;
55172;SDS011;41061;52.822;6.860;2023-04-12T00:50:07;8.95;;;3.00;;
55172;SDS011;41061;52.822;6.860;2023-04-12T00:52:33;13.05;;;2.38;;
55172;SDS011;41061;52.822;6.860;2023-04-12T00:55:02;10.60;;;2.53;;
55172;SDS011;41061;52.822;6.860;2023-04-12T00:57:31;9.63;;;2.47;;
55172;SDS011;41061;52.822;6.860;2023-04-12T01:00:00;10.15;;;2.20;;
55172;SDS011;41061;52.822;6.860;2023-04-12T01:02:32;13.60;;;3.13;;
55172;SDS011;41061;52.822;6.860;2023-04-12T01:04:58;11.38;;;2.67;;
55172;SDS011;41061;52.822;6.860;2023-04-12T01:15:57;7.40;;;2.78;;
55172;SDS011;41061;52.822;6.860;2023-04-12T01:18:37;12.20;;;2.60;;
55172;SDS011;41061;52.822;6.860;2023-04-12T01:21:07;11.45;;;3.08;;
55172;SDS011;41061;52.822;6.860;2023-04-12T01:29:09;8.70;;;2.50;;
55172;SDS011;41061;52.822;6.860;2023-04-12T01:31:38;10.13;;;2.95;;
55172;SDS011;41061;52.822;6.860;2023-04-12T01:34:06;12.82;;;3.05;;
55172;SDS011;41061;52.822;6.860;2023-04-12T01:36:35;9.98;;;2.17;;
55172;SDS011;41061;52.822;6.860;2023-04-12T01:39:03;13.38;;;2.90;;
55172;SDS011;41061;52.822;6.860;2023-04-12T01:41:30;14.27;;;3.10;;
55172;SDS011;41061;52.822;6.860;2023-04-12T01:43:57;10.32;;;3.05;;
55172;SDS011;41061;52.822;6.860;2023-04-12T01:46:22;13.27;;;3.10;;
55172;SDS011;41061;52.822;6.860;2023-04-12T01:48:49;12.30;;;3.13;;
55172;SDS011;41061;52.822;6.860;2023-04-12T01:51:18;6.70;;;2.25;;
55172;SDS011;41061;52.822;6.860;2023-04-12T01:54:12;11.50;;;2.47;;
55172;SDS011;41061;52.822;6.860;2023-04-12T01:56:40;12.18;;;2.50;;
55172;SDS011;41061;52.822;6.860;2023-04-12T01:59:11;9.50;;;2.75;;
55172;SDS011;41061;52.822;6.860;2023-04-12T02:01:40;9.77;;;2.47;;
55172;SDS011;41061;52.822;6.860;2023-04-12T02:04:06;11.07;;;2.40;;
55172;SDS011;41061;52.822;6.860;2023-04-12T02:06:33;5.53;;;1.92;;
55172;SDS011;41061;52.822;6.860;2023-04-12T02:09:01;10.82;;;2.70;;
55172;SDS011;41061;52.822;6.860;2023-04-12T02:11:28;9.93;;;2.17;;
55172;SDS011;41061;52.822;6.860;2023-04-12T02:13:54;8.95;;;2.08;;
55172;SDS011;41061;52.822;6.860;2023-04-12T02:16:20;8.25;;;2.15;;
55172;SDS011;41061;52.822;6.860;2023-04-12T02:18:47;8.68;;;2.42;;
55172;SDS011;41061;52.822;6.860;2023-04-12T02:21:16;10.70;;;2.53;;
55172;SDS011;41061;52.822;6.860;2023-04-12T02:23:42;8.57;;;2.30;;
55172;SDS011;41061;52.822;6.860;2023-04-12T02:26:10;8.40;;;2.20;;
55172;SDS011;41061;52.822;6.860;2023-04-12T02:28:37;7.00;;;1.98;;
55172;SDS011;41061;52.822;6.860;2023-04-12T02:31:06;8.52;;;2.30;;
55172;SDS011;41061;52.822;6.860;2023-04-12T02:33:32;4.93;;;1.92;;
55172;SDS011;41061;52.822;6.860;2023-04-12T02:35:59;5.40;;;2.17;;
55172;SDS011;41061;52.822;6.860;2023-04-12T02:38:28;5.20;;;1.58;;
55172;SDS011;41061;52.822;6.860;2023-04-12T02:40:55;8.57;;;2.30;;
55172;SDS011;41061;52.822;6.860;2023-04-12T02:43:21;7.18;;;2.33;;
55172;SDS011;41061;52.822;6.860;2023-04-12T02:45:46;7.03;;;1.70;;
55172;SDS011;41061;52.822;6.860;2023-04-12T02:48:13;5.55;;;1.67;;
55172;SDS011;41061;52.822;6.860;2023-04-12T02:50:38;6.65;;;1.45;;
55172;SDS011;41061;52.822;6.860;2023-04-12T02:53:05;6.28;;;1.50;;
55172;SDS011;41061;52.822;6.860;2023-04-12T02:55:30;7.53;;;2.10;;
55172;SDS011;41061;52.822;6.860;2023-04-12T02:57:56;7.07;;;1.63;;
55172;SDS011;41061;52.822;6.860;2023-04-12T03:00:22;7.50;;;1.75;;
55172;SDS011;41061;52.822;6.860;2023-04-12T03:02:48;4.47;;;1.52;;
55172;SDS011;41061;52.822;6.860;2023-04-12T03:05:17;7.05;;;1.67;;
55172;SDS011;41061;52.822;6.860;2023-04-12T03:07:43;5.47;;;1.60;;
55172;SDS011;41061;52.822;6.860;2023-04-12T03:10:10;8.57;;;1.35;;
55172;SDS011;41061;52.822;6.860;2023-04-12T03:12:36;7.63;;;1.55;;
55172;SDS011;41061;52.822;6.860;2023-04-12T03:15:02;5.28;;;1.52;;
55172;SDS011;41061;52.822;6.860;2023-04-12T03:17:28;6.82;;;1.45;;
55172;SDS011;41061;52.822;6.860;2023-04-12T03:19:54;5.28;;;1.65;;
55172;SDS011;41061;52.822;6.860;2023-04-12T03:22:19;8.98;;;1.48;;
55172;SDS011;41061;52.822;6.860;2023-04-12T03:24:47;8.38;;;1.25;;
55172;SDS011;41061;52.822;6.860;2023-04-12T03:27:13;8.02;;;2.10;;
55172;SDS011;41061;52.822;6.860;2023-04-12T03:29:39;5.97;;;1.50;;
55172;SDS011;41061;52.822;6.860;2023-04-12T03:32:06;5.68;;;1.40;;
55172;SDS011;41061;52.822;6.860;2023-04-12T03:34:32;6.45;;;1.58;;
55172;SDS011;41061;52.822;6.860;2023-04-12T03:36:58;11.30;;;2.00;;
55172;SDS011;41061;52.822;6.860;2023-04-12T03:39:27;6.63;;;2.05;;
55172;SDS011;41061;52.822;6.860;2023-04-12T03:41:53;8.65;;;2.10;;
55172;SDS011;41061;52.822;6.860;2023-04-12T03:44:19;9.30;;;2.35;;
55172;SDS011;41061;52.822;6.860;2023-04-12T03:46:45;10.73;;;2.45;;
55172;SDS011;41061;52.822;6.860;2023-04-12T03:49:12;9.23;;;2.10;;
55172;SDS011;41061;52.822;6.860;2023-04-12T03:51:38;8.27;;;2.28;;
55172;SDS011;41061;52.822;6.860;2023-04-12T03:54:10;7.35;;;2.22;;
55172;SDS011;41061;52.822;6.860;2023-04-12T03:56:37;9.05;;;2.15;;
55172;SDS011;41061;52.822;6.860;2023-04-12T03:59:06;9.68;;;2.58;;
55172;SDS011;41061;52.822;6.860;2023-04-12T04:01:32;7.88;;;2.25;;
55172;SDS011;41061;52.822;6.860;2023-04-12T04:03:58;6.90;;;2.05;;
55172;SDS011;41061;52.822;6.860;2023-04-12T04:06:24;6.80;;;2.90;;
55172;SDS011;41061;52.822;6.860;2023-04-12T04:08:52;7.88;;;2.08;;
55172;SDS011;41061;52.822;6.860;2023-04-12T04:11:17;7.13;;;2.03;;
55172;SDS011;41061;52.822;6.860;2023-04-12T04:13:43;10.10;;;1.98;;
55172;SDS011;41061;52.822;6.860;2023-04-12T04:16:10;5.68;;;1.83;;
55172;SDS011;41061;52.822;6.860;2023-04-12T04:18:36;8.70;;;2.40;;
55172;SDS011;41061;52.822;6.860;2023-04-12T04:21:02;9.27;;;2.50;;
55172;SDS011;41061;52.822;6.860;2023-04-12T04:23:29;7.13;;;2.28;;
55172;SDS011;41061;52.822;6.860;2023-04-12T04:26:02;6.47;;;2.45;;
55172;SDS011;41061;52.822;6.860;2023-04-12T04:28:30;7.15;;;2.00;;
55172;SDS011;41061;52.822;6.860;2023-04-12T04:30:58;8.00;;;1.92;;
55172;SDS011;41061;52.822;6.860;2023-04-12T04:33:29;7.05;;;2.10;;
55172;SDS011;41061;52.822;6.860;2023-04-12T04:35:55;9.82;;;2.30;;
55172;SDS011;41061;52.822;6.860;2023-04-12T04:38:21;6.00;;;1.55;;
55172;SDS011;41061;52.822;6.860;2023-04-12T04:40:49;5.95;;;1.95;;
55172;SDS011;41061;52.822;6.860;2023-04-12T04:43:19;10.80;;;2.22;;
55172;SDS011;41061;52.822;6.860;2023-04-12T04:45:46;4.43;;;1.60;;
55172;SDS011;41061;52.822;6.860;2023-04-12T04:48:15;6.47;;;1.88;;
55172;SDS011;41061;52.822;6.860;2023-04-12T04:50:42;7.32;;;2.22;;
55172;SDS011;41061;52.822;6.860;2023-04-12T04:53:09;6.82;;;2.38;;
55172;SDS011;41061;52.822;6.860;2023-04-12T04:55:38;6.78;;;1.50;;
55172;SDS011;41061;52.822;6.860;2023-04-12T04:58:06;6.15;;;1.58;;
55172;SDS011;41061;52.822;6.860;2023-04-12T05:00:32;4.00;;;1.80;;
55172;SDS011;41061;52.822;6.860;2023-04-12T05:02:59;7.07;;;1.60;;
55172;SDS011;41061;52.822;6.860;2023-04-12T05:05:26;7.25;;;1.60;;
55172;SDS011;41061;52.822;6.860;2023-04-12T05:07:52;4.75;;;1.83;;
55172;SDS011;41061;52.822;6.860;2023-04-12T05:10:19;6.53;;;1.70;;
55172;SDS011;41061;52.822;6.860;2023-04-12T05:12:45;5.35;;;1.38;;
55172;SDS011;41061;52.822;6.860;2023-04-12T05:15:11;5.65;;;1.70;;
55172;SDS011;41061;52.822;6.860;2023-04-12T05:17:36;10.35;;;1.92;;
55172;SDS011;41061;52.822;6.860;2023-04-12T05:20:02;7.43;;;1.60;;
55172;SDS011;41061;52.822;6.860;2023-04-12T05:22:33;7.22;;;1.83;;
55172;SDS011;41061;52.822;6.860;2023-04-12T05:24:59;5.32;;;1.67;;
55172;SDS011;41061;52.822;6.860;2023-04-12T05:27:25;7.30;;;1.45;;
55172;SDS011;41061;52.822;6.860;2023-04-12T05:29:55;7.47;;;1.83;;
55172;SDS011;41061;52.822;6.860;2023-04-12T05:32:22;6.75;;;1.77;;
55172;SDS011;41061;52.822;6.860;2023-04-12T05:37:24;8.57;;;1.80;;
55172;SDS011;41061;52.822;6.860;2023-04-12T05:39:51;8.30;;;2.17;;
55172;SDS011;41061;52.822;6.860;2023-04-12T05:42:17;6.55;;;2.00;;
55172;SDS011;41061;52.822;6.860;2023-04-12T05:44:43;5.75;;;1.63;;
55172;SDS011;41061;52.822;6.860;2023-04-12T05:47:09;6.63;;;2.38;;
55172;SDS011;41061;52.822;6.860;2023-04-12T05:49:36;4.97;;;1.83;;
55172;SDS011;41061;52.822;6.860;2023-04-12T05:52:02;6.25;;;1.67;;
55172;SDS011;41061;52.822;6.860;2023-04-12T05:54:27;9.60;;;2.00;;
55172;SDS011;41061;52.822;6.860;2023-04-12T05:56:53;7.97;;;1.85;;
55172;SDS011;41061;52.822;6.860;2023-04-12T05:59:19;6.40;;;2.13;;
55172;SDS011;41061;52.822;6.860;2023-04-12T06:01:45;10.00;;;2.47;;
55172;SDS011;41061;52.822;6.860;2023-04-12T06:04:10;8.85;;;1.95;;
55172;SDS011;41061;52.822;6.860;2023-04-12T06:06:36;7.97;;;2.10;;
55172;SDS011;41061;52.822;6.860;2023-04-12T06:09:02;8.77;;;2.50;;
55172;SDS011;41061;52.822;6.860;2023-04-12T06:11:29;5.65;;;1.90;;
55172;SDS011;41061;52.822;6.860;2023-04-12T06:13:59;7.20;;;1.67;;
55172;SDS011;41061;52.822;6.860;2023-04-12T06:16:25;5.22;;;1.65;;
55172;SDS011;41061;52.822;6.860;2023-04-12T06:18:51;6.47;;;1.75;;
55172;SDS011;41061;52.822;6.860;2023-04-12T06:21:17;5.70;;;1.90;;
55172;SDS011;41061;52.822;6.860;2023-04-12T06:23:43;6.07;;;2.50;;
55172;SDS011;41061;52.822;6.860;2023-04-12T06:26:09;5.88;;;1.85;;
55172;SDS011;41061;52.822;6.860;2023-04-12T06:28:35;5.72;;;1.83;;
55172;SDS011;41061;52.822;6.860;2023-04-12T06:31:01;10.98;;;2.33;;
55172;SDS011;41061;52.822;6.860;2023-04-12T06:33:28;7.82;;;1.88;;
55172;SDS011;41061;52.822;6.860;2023-04-12T06:35:54;6.43;;;1.85;;
55172;SDS011;41061;52.822;6.860;2023-04-12T06:38:20;6.50;;;1.73;;
55172;SDS011;41061;52.822;6.860;2023-04-12T06:40:45;9.68;;;2.22;;
55172;SDS011;41061;52.822;6.860;2023-04-12T06:43:11;9.00;;;2.10;;
55172;SDS011;41061;52.822;6.860;2023-04-12T06:45:38;6.07;;;2.05;;
55172;SDS011;41061;52.822;6.860;2023-04-12T06:48:03;6.57;;;1.75;;
55172;SDS011;41061;52.822;6.860;2023-04-12T06:50:29;11.65;;;2.15;;
55172;SDS011;41061;52.822;6.860;2023-04-12T06:52:55;5.93;;;1.95;;
55172;SDS011;41061;52.822;6.860;2023-04-12T06:55:20;7.97;;;2.10;;
55172;SDS011;41061;52.822;6.860;2023-04-12T06:57:46;5.18;;;1.80;;
55172;SDS011;41061;52.822;6.860;2023-04-12T07:00:15;6.40;;;1.98;;
55172;SDS011;41061;52.822;6.860;2023-04-12T07:02:41;6.65;;;1.95;;
55172;SDS011;41061;52.822;6.860;2023-04-12T07:05:07;5.53;;;2.08;;
55172;SDS011;41061;52.822;6.860;2023-04-12T07:07:33;6.00;;;1.92;;
55172;SDS011;41061;52.822;6.860;2023-04-12T07:09:59;6.70;;;1.77;;
55172;SDS011;41061;52.822;6.860;2023-04-12T07:12:25;7.43;;;2.10;;
55172;SDS011;41061;52.822;6.860;2023-04-12T07:14:50;2.90;;;1.70;;
55172;SDS011;41061;52.822;6.860;2023-04-12T07:17:16;5.50;;;1.65;;
55172;SDS011;41061;52.822;6.860;2023-04-12T07:19:42;9.48;;;2.10;;
55172;SDS011;41061;52.822;6.860;2023-04-12T07:22:08;3.30;;;1.60;;
55172;SDS011;41061;52.822;6.860;2023-04-12T07:24:34;5.45;;;1.75;;
55172;SDS011;41061;52.822;6.860;2023-04-12T07:27:00;5.45;;;1.80;;
55172;SDS011;41061;52.822;6.860;2023-04-12T07:29:26;6.10;;;2.00;;
55172;SDS011;41061;52.822;6.860;2023-04-12T07:31:52;4.53;;;1.88;;
55172;SDS011;41061;52.822;6.860;2023-04-12T07:34:17;7.50;;;1.65;;
55172;SDS011;41061;52.822;6.860;2023-04-12T07:36:43;5.40;;;1.80;;
55172;SDS011;41061;52.822;6.860;2023-04-12T07:39:09;6.45;;;1.80;;
55172;SDS011;41061;52.822;6.860;2023-04-12T07:41:38;8.13;;;2.03;;
55172;SDS011;41061;52.822;6.860;2023-04-12T07:44:06;3.67;;;1.38;;
55172;SDS011;41061;52.822;6.860;2023-04-12T07:46:32;5.93;;;2.03;;
55172;SDS011;41061;52.822;6.860;2023-04-12T07:48:57;5.47;;;1.65;;
55172;SDS011;41061;52.822;6.860;2023-04-12T07:51:23;4.22;;;2.05;;
55172;SDS011;41061;52.822;6.860;2023-04-12T07:53:49;4.43;;;2.05;;
55172;SDS011;41061;52.822;6.860;2023-04-12T07:56:15;4.60;;;1.70;;
55172;SDS011;41061;52.822;6.860;2023-04-12T07:58:41;6.13;;;2.20;;
55172;SDS011;41061;52.822;6.860;2023-04-12T08:01:07;4.45;;;1.80;;
55172;SDS011;41061;52.822;6.860;2023-04-12T08:03:32;5.80;;;1.58;;
55172;SDS011;41061;52.822;6.860;2023-04-12T08:05:58;3.72;;;1.73;;
55172;SDS011;41061;52.822;6.860;2023-04-12T08:08:24;8.32;;;2.00;;
55172;SDS011;41061;52.822;6.860;2023-04-12T08:10:50;6.07;;;2.15;;
55172;SDS011;41061;52.822;6.860;2023-04-12T08:13:18;3.95;;;1.85;;
55172;SDS011;41061;52.822;6.860;2023-04-12T08:15:44;5.03;;;1.70;;
55172;SDS011;41061;52.822;6.860;2023-04-12T08:18:11;4.63;;;2.20;;
55172;SDS011;41061;52.822;6.860;2023-04-12T08:20:37;3.13;;;1.80;;
55172;SDS011;41061;52.822;6.860;2023-04-12T08:23:08;2.78;;;1.40;;
55172;SDS011;41061;52.822;6.860;2023-04-12T08:25:35;3.72;;;1.70;;
55172;SDS011;41061;52.822;6.860;2023-04-12T08:28:02;3.78;;;1.73;;
55172;SDS011;41061;52.822;6.860;2023-04-12T08:30:28;3.75;;;1.73;;
55172;SDS011;41061;52.822;6.860;2023-04-12T08:32:54;5.88;;;2.53;;
55172;SDS011;41061;52.822;6.860;2023-04-12T08:35:19;3.67;;;1.70;;
55172;SDS011;41061;52.822;6.860;2023-04-12T08:37:46;5.68;;;1.92;;
55172;SDS011;41061;52.822;6.860;2023-04-12T08:40:12;4.75;;;2.20;;
55172;SDS011;41061;52.822;6.860;2023-04-12T08:42:38;5.75;;;2.50;;
55172;SDS011;41061;52.822;6.860;2023-04-12T08:47:36;4.95;;;2.22;;
55172;SDS011;41061;52.822;6.860;2023-04-12T08:50:03;4.75;;;2.60;;
55172;SDS011;41061;52.822;6.860;2023-04-12T08:52:33;3.45;;;2.60;;
55172;SDS011;41061;52.822;6.860;2023-04-12T08:55:09;6.35;;;3.38;;
55172;SDS011;41061;52.822;6.860;2023-04-12T08:57:38;4.45;;;3.42;;
55172;SDS011;41061;52.822;6.860;2023-04-12T09:00:06;3.58;;;3.17;;
55172;SDS011;41061;52.822;6.860;2023-04-12T09:02:36;5.50;;;3.60;;
55172;SDS011;41061;52.822;6.860;2023-04-12T09:05:02;6.35;;;3.53;;
55172;SDS011;41061;52.822;6.860;2023-04-12T09:07:30;4.25;;;2.30;;
55172;SDS011;41061;52.822;6.860;2023-04-12T09:09:56;3.90;;;2.47;;
55172;SDS011;41061;52.822;6.860;2023-04-12T09:12:22;4.45;;;2.53;;
55172;SDS011;41061;52.822;6.860;2023-04-12T09:15:08;3.70;;;2.08;;
55172;SDS011;41061;52.822;6.860;2023-04-12T09:17:40;3.83;;;2.10;;
55172;SDS011;41061;52.822;6.860;2023-04-12T09:22:41;4.23;;;2.87;;
55172;SDS011;41061;52.822;6.860;2023-04-12T09:25:12;3.15;;;2.58;;
55172;SDS011;41061;52.822;6.860;2023-04-12T09:27:48;3.92;;;2.10;;
55172;SDS011;41061;52.822;6.860;2023-04-12T09:30:16;2.65;;;2.40;;
55172;SDS011;41061;52.822;6.860;2023-04-12T09:32:43;4.00;;;3.03;;
55172;SDS011;41061;52.822;6.860;2023-04-12T09:35:08;4.45;;;3.00;;
55172;SDS011;41061;52.822;6.860;2023-04-12T09:37:35;4.80;;;3.45;;
55172;SDS011;41061;52.822;6.860;2023-04-12T09:40:02;5.43;;;3.45;;
55172;SDS011;41061;52.822;6.860;2023-04-12T09:42:29;7.07;;;3.80;;
55172;SDS011;41061;52.822;6.860;2023-04-12T09:44:57;4.95;;;3.50;;
55172;SDS011;41061;52.822;6.860;2023-04-12T09:47:45;5.78;;;3.30;;
55172;SDS011;41061;52.822;6.860;2023-04-12T09:50:10;4.03;;;3.13;;
55172;SDS011;41061;52.822;6.860;2023-04-12T09:52:50;7.45;;;3.25;;
55172;SDS011;41061;52.822;6.860;2023-04-12T09:55:17;6.28;;;3.80;;
55172;SDS011;41061;52.822;6.860;2023-04-12T09:57:49;5.00;;;4.05;;
55172;SDS011;41061;52.822;6.860;2023-04-12T10:00:17;6.78;;;4.80;;
55172;SDS011;41061;52.822;6.860;2023-04-12T10:02:45;6.97;;;4.93;;
55172;SDS011;41061;52.822;6.860;2023-04-12T10:05:12;5.18;;;4.03;;
55172;SDS011;41061;52.822;6.860;2023-04-12T10:07:40;5.97;;;3.92;;
55172;SDS011;41061;52.822;6.860;2023-04-12T10:10:11;6.07;;;4.00;;
55172;SDS011;41061;52.822;6.860;2023-04-12T10:12:41;5.28;;;3.70;;
55172;SDS011;41061;52.822;6.860;2023-04-12T10:15:10;5.50;;;3.72;;
55172;SDS011;41061;52.822;6.860;2023-04-12T10:17:42;6.57;;;4.80;;
55172;SDS011;41061;52.822;6.860;2023-04-12T10:20:15;5.68;;;4.00;;
55172;SDS011;41061;52.822;6.860;2023-04-12T10:22:42;6.50;;;4.63;;
55172;SDS011;41061;52.822;6.860;2023-04-12T10:25:13;5.95;;;3.30;;
55172;SDS011;41061;52.822;6.860;2023-04-12T10:27:41;5.28;;;3.75;;
55172;SDS011;41061;52.822;6.860;2023-04-12T10:32:42;5.28;;;4.30;;
55172;SDS011;41061;52.822;6.860;2023-04-12T10:35:08;7.10;;;3.65;;
55172;SDS011;41061;52.822;6.860;2023-04-12T10:40:28;6.40;;;3.08;;
55172;SDS011;41061;52.822;6.860;2023-04-12T10:45:46;7.03;;;3.30;;
55172;SDS011;41061;52.822;6.860;2023-04-12T10:53:53;6.15;;;3.63;;
55172;SDS011;41061;52.822;6.860;2023-04-12T10:56:42;4.95;;;3.70;;
55172;SDS011;41061;52.822;6.860;2023-04-12T10:59:08;4.57;;;3.50;;
55172;SDS011;41061;52.822;6.860;2023-04-12T11:01:35;5.13;;;3.65;;
55172;SDS011;41061;52.822;6.860;2023-04-12T11:04:20;8.50;;;3.60;;
55172;SDS011;41061;52.822;6.860;2023-04-12T11:09:16;6.35;;;3.75;;
55172;SDS011;41061;52.822;6.860;2023-04-12T11:14:34;10.48;;;3.25;;
55172;SDS011;41061;52.822;6.860;2023-04-12T11:19:44;8.13;;;2.63;;
55172;SDS011;41061;52.822;6.860;2023-04-12T11:22:13;10.40;;;3.13;;
55172;SDS011;41061;52.822;6.860;2023-04-12T11:27:12;8.75;;;2.42;;
55172;SDS011;41061;52.822;6.860;2023-04-12T11:29:38;8.25;;;2.70;;
55172;SDS011;41061;52.822;6.860;2023-04-12T11:32:09;9.23;;;2.72;;
55172;SDS011;41061;52.822;6.860;2023-04-12T11:34:40;14.68;;;3.38;;
55172;SDS011;41061;52.822;6.860;2023-04-12T11:37:07;14.60;;;2.25;;
55172;SDS011;41061;52.822;6.860;2023-04-12T11:39:34;10.18;;;2.20;;
55172;SDS011;41061;52.822;6.860;2023-04-12T11:42:03;8.75;;;2.38;;
55172;SDS011;41061;52.822;6.860;2023-04-12T11:44:34;8.80;;;2.13;;
55172;SDS011;41061;52.822;6.860;2023-04-12T11:47:01;7.20;;;1.83;;
55172;SDS011;41061;52.822;6.860;2023-04-12T11:49:28;11.07;;;2.10;;
55172;SDS011;41061;52.822;6.860;2023-04-12T11:52:00;8.30;;;2.15;;
55172;SDS011;41061;52.822;6.860;2023-04-12T11:54:28;11.02;;;2.00;;
55172;SDS011;41061;52.822;6.860;2023-04-12T11:56:59;7.30;;;2.10;;
55172;SDS011;41061;52.822;6.860;2023-04-12T11:59:31;9.73;;;2.28;;
55172;SDS011;41061;52.822;6.860;2023-04-12T12:02:00;9.32;;;2.13;;
55172;SDS011;41061;52.822;6.860;2023-04-12T12:04:27;8.82;;;2.85;;
55172;SDS011;41061;52.822;6.860;2023-04-12T12:06:54;11.68;;;2.35;;
55172;SDS011;41061;52.822;6.860;2023-04-12T12:09:21;14.65;;;2.95;;
55172;SDS011;41061;52.822;6.860;2023-04-12T12:11:47;9.82;;;2.63;;
55172;SDS011;41061;52.822;6.860;2023-04-12T12:14:17;12.05;;;2.33;;
55172;SDS011;41061;52.822;6.860;2023-04-12T12:16:43;12.88;;;2.50;;
55172;SDS011;41061;52.822;6.860;2023-04-12T12:19:26;8.13;;;2.65;;
55172;SDS011;41061;52.822;6.860;2023-04-12T12:21:53;7.65;;;2.20;;
55172;SDS011;41061;52.822;6.860;2023-04-12T12:24:19;11.30;;;2.67;;
55172;SDS011;41061;52.822;6.860;2023-04-12T12:26:48;11.15;;;2.38;;
55172;SDS011;41061;52.822;6.860;2023-04-12T12:29:17;9.35;;;2.53;;
55172;SDS011;41061;52.822;6.860;2023-04-12T12:31:46;10.27;;;2.05;;
55172;SDS011;41061;52.822;6.860;2023-04-12T12:34:13;10.50;;;2.42;;
55172;SDS011;41061;52.822;6.860;2023-04-12T12:36:43;12.20;;;2.80;;
55172;SDS011;41061;52.822;6.860;2023-04-12T12:39:18;8.43;;;1.85;;
55172;SDS011;41061;52.822;6.860;2023-04-12T12:41:44;9.27;;;2.38;;
55172;SDS011;41061;52.822;6.860;2023-04-12T12:44:18;15.13;;;2.67;;
55172;SDS011;41061;52.822;6.860;2023-04-12T12:46:44;10.23;;;2.50;;
55172;SDS011;41061;52.822;6.860;2023-04-12T12:49:10;7.10;;;1.83;;
55172;SDS011;41061;52.822;6.860;2023-04-12T12:51:35;11.25;;;2.08;;
55172;SDS011;41061;52.822;6.860;2023-04-12T12:54:19;12.75;;;2.42;;
55172;SDS011;41061;52.822;6.860;2023-04-12T12:56:45;6.32;;;1.67;;
55172;SDS011;41061;52.822;6.860;2023-04-12T12:59:11;15.52;;;3.40;;
55172;SDS011;41061;52.822;6.860;2023-04-12T13:01:37;7.82;;;1.88;;
55172;SDS011;41061;52.822;6.860;2023-04-12T13:04:03;9.48;;;2.15;;
55172;SDS011;41061;52.822;6.860;2023-04-12T13:06:28;9.95;;;1.83;;
55172;SDS011;41061;52.822;6.860;2023-04-12T13:08:56;7.63;;;2.20;;
55172;SDS011;41061;52.822;6.860;2023-04-12T13:11:21;8.65;;;2.20;;
55172;SDS011;41061;52.822;6.860;2023-04-12T13:13:47;8.02;;;2.10;;
55172;SDS011;41061;52.822;6.860;2023-04-12T13:16:13;14.75;;;2.33;;
55172;SDS011;41061;52.822;6.860;2023-04-12T13:18:39;17.33;;;2.78;;
55172;SDS011;41061;52.822;6.860;2023-04-12T13:21:05;9.50;;;1.80;;
55172;SDS011;41061;52.822;6.860;2023-04-12T13:23:31;8.23;;;2.17;;
55172;SDS011;41061;52.822;6.860;2023-04-12T13:25:57;7.82;;;1.75;;
55172;SDS011;41061;52.822;6.860;2023-04-12T13:28:23;7.05;;;2.72;;
55172;SDS011;41061;52.822;6.860;2023-04-12T13:30:51;14.82;;;2.38;;
55172;SDS011;41061;52.822;6.860;2023-04-12T13:33:17;13.88;;;2.50;;
55172;SDS011;41061;52.822;6.860;2023-04-12T13:35:43;10.70;;;2.70;;
55172;SDS011;41061;52.822;6.860;2023-04-12T13:38:12;12.07;;;2.38;;
55172;SDS011;41061;52.822;6.860;2023-04-12T13:40:37;12.00;;;2.75;;
55172;SDS011;41061;52.822;6.860;2023-04-12T13:43:03;7.10;;;1.52;;
55172;SDS011;41061;52.822;6.860;2023-04-12T13:45:37;7.25;;;1.55;;
55172;SDS011;41061;52.822;6.860;2023-04-12T13:48:03;6.20;;;1.38;;
55172;SDS011;41061;52.822;6.860;2023-04-12T13:50:28;6.93;;;1.50;;
55172;SDS011;41061;52.822;6.860;2023-04-12T13:52:54;5.13;;;1.40;;
55172;SDS011;41061;52.822;6.860;2023-04-12T13:55:19;5.97;;;1.42;;
55172;SDS011;41061;52.822;6.860;2023-04-12T13:57:45;12.02;;;1.52;;
55172;SDS011;41061;52.822;6.860;2023-04-12T14:00:11;8.70;;;1.55;;
55172;SDS011;41061;52.822;6.860;2023-04-12T14:02:37;8.77;;;1.90;;
55172;SDS011;41061;52.822;6.860;2023-04-12T14:05:03;9.90;;;2.33;;
55172;SDS011;41061;52.822;6.860;2023-04-12T14:07:29;11.05;;;1.88;;
55172;SDS011;41061;52.822;6.860;2023-04-12T14:09:54;15.93;;;2.95;;
55172;SDS011;41061;52.822;6.860;2023-04-12T14:12:21;10.43;;;1.75;;
55172;SDS011;41061;52.822;6.860;2023-04-12T14:14:47;13.07;;;2.03;;
55172;SDS011;41061;52.822;6.860;2023-04-12T14:17:12;11.90;;;2.20;;
55172;SDS011;41061;52.822;6.860;2023-04-12T14:19:38;5.97;;;1.38;;
55172;SDS011;41061;52.822;6.860;2023-04-12T14:22:04;15.35;;;1.90;;
55172;SDS011;41061;52.822;6.860;2023-04-12T14:24:30;8.13;;;1.70;;
55172;SDS011;41061;52.822;6.860;2023-04-12T14:26:55;13.93;;;1.80;;
55172;SDS011;41061;52.822;6.860;2023-04-12T14:29:21;6.85;;;1.27;;
55172;SDS011;41061;52.822;6.860;2023-04-12T14:31:47;7.15;;;1.15;;
55172;SDS011;41061;52.822;6.860;2023-04-12T14:34:12;7.45;;;1.48;;
55172;SDS011;41061;52.822;6.860;2023-04-12T14:36:38;4.82;;;1.27;;
55172;SDS011;41061;52.822;6.860;2023-04-12T14:39:05;8.00;;;1.50;;
55172;SDS011;41061;52.822;6.860;2023-04-12T14:41:31;8.88;;;1.60;;
55172;SDS011;41061;52.822;6.860;2023-04-12T14:44:00;11.85;;;1.75;;
55172;SDS011;41061;52.822;6.860;2023-04-12T14:46:25;5.72;;;0.98;;
55172;SDS011;41061;52.822;6.860;2023-04-12T14:48:53;5.75;;;1.13;;
55172;SDS011;41061;52.822;6.860;2023-04-12T14:51:18;4.47;;;1.10;;
55172;SDS011;41061;52.822;6.860;2023-04-12T14:53:44;6.68;;;1.20;;
55172;SDS011;41061;52.822;6.860;2023-04-12T14:56:20;5.07;;;1.30;;
55172;SDS011;41061;52.822;6.860;2023-04-12T14:58:46;10.02;;;1.65;;
55172;SDS011;41061;52.822;6.860;2023-04-12T15:01:12;9.80;;;1.95;;
55172;SDS011;41061;52.822;6.860;2023-04-12T15:03:38;8.90;;;1.40;;
55172;SDS011;41061;52.822;6.860;2023-04-12T15:06:06;4.75;;;1.15;;
55172;SDS011;41061;52.822;6.860;2023-04-12T15:08:33;10.75;;;2.45;;
55172;SDS011;41061;52.822;6.860;2023-04-12T15:11:05;5.43;;;1.13;;
55172;SDS011;41061;52.822;6.860;2023-04-12T15:13:33;6.35;;;1.20;;
55172;SDS011;41061;52.822;6.860;2023-04-12T15:16:03;10.45;;;1.30;;
55172;SDS011;41061;52.822;6.860;2023-04-12T15:18:33;4.60;;;1.30;;
55172;SDS011;41061;52.822;6.860;2023-04-12T15:21:03;5.20;;;1.13;;
55172;SDS011;41061;52.822;6.860;2023-04-12T15:23:40;6.85;;;1.60;;
55172;SDS011;41061;52.822;6.860;2023-04-12T15:26:05;6.65;;;1.80;;
55172;SDS011;41061;52.822;6.860;2023-04-12T15:28:33;10.35;;;1.60;;
55172;SDS011;41061;52.822;6.860;2023-04-12T15:31:00;11.30;;;1.67;;
55172;SDS011;41061;52.822;6.860;2023-04-12T15:33:26;7.50;;;1.33;;